Startpagina
METAR-TAF:

METAR-TAF

Vliegvelden :

Lynden Pindling International Airport

Nassau, Bahama's

breedte: 25-03N, lengte: 077-28W, hoogte: 3 m

Actueel weer

Dit bericht is 26 minuten geleden gemaakt, om 09:00 UTC
Wind 2 kt uit variabele richting
Temperatuur 25°C
Vochtigheid 94%
Druk 1014 hPa
Zicht 10 km of meer
Verspreide wolken op 2000 ft

METAR: MYNN 190900Z VRB02KT 9999 SCT020 25/24 A2993

Tijdstip: 05:26 (09:26 UTC)

Verwachting

Dit bericht is 5 uur en het 26 minuten geleden gemaakt, om 04:00 UTC
Verwachting geldig van 19 om 06 UTC tot 20 om 06 UTC
Wind 5 kt uit het zuidoosten
Zicht 10 km of meer
Verspreide wolken op 2000 ft
Kans 30% :
Tijdelijke
van 19 om 18 UTC tot 19 om 24 UTC
Zicht: 6000 m
Verspreide wolken op 1200 ft, Cumulonimbus.
Gebroken wolken op 4000 ft
onweer, regen

TAF: MYNN 190400Z 1906/2006 13005KT 9999 SCT020 PROB30 TEMPO 1918/1924 6000 TSRA SCT012CB BKN040

Waarnemingen en weersverwachtingen van meer dan 4000 vliegvelden (METAR en TAF).

De beschikbare stations zijn de gele en rode punten op de kaart.

Ga met uw muis naar het station om de naam te zien.

Klik dan om waarnemingen en weersverwachtingen te zien.

kaart wijzigen: klik op de groene knoppen met een zwart kruis om in te zoomen, op de groene knop met een streepje om uit te zoomen of op de groene pijlen voor aangrenzende kaarten.


METAR-TAF: